Time;durP1;ratioP1;P1;durP2;ratioP2;P2;SDS_P1;SDS_P2;PMS_P1;PMS_P2;Temp;Humidity;BMP_temperature;BMP_pressure;BME280_temperature;BME280_humidity;BME280_pressure;Samples;Min_cycle;Max_cycle;Signal;HPM_P1;HPM_P2
2023/05/16 00:01:00;;;;;;;20.23;14.40;;;10.90;99.90;;;;;;2611757;54;20360;-72
2023/05/16 00:06:47;;;;;;;14.77;11.40;;;10.80;99.90;;;;;;2610186;54;20969;-73
2023/05/16 00:12:36;;;;;;;13.53;11.97;;;10.70;99.90;;;;;;2610771;54;20133;-73
2023/05/16 00:18:25;;;;;;;14.77;10.63;;;10.70;99.90;;;;;;2610766;54;20467;-73
2023/05/16 00:24:14;;;;;;;14.67;10.63;;;10.70;99.90;;;;;;2610647;54;20475;-74
2023/05/16 00:30:05;;;;;;;13.70;8.77;;;10.50;99.90;;;;;;2610945;47;20510;-72
2023/05/16 00:35:53;;;;;;;10.07;8.17;;;10.50;99.90;;;;;;2610727;54;20967;-75
2023/05/16 00:41:41;;;;;;;7.50;6.80;;;10.50;99.90;;;;;;2611050;39;20568;-74
2023/05/16 00:44:51;;;;;;;9.63;8.27;;;10.40;99.90;;;;;;2611720;47;20474;-74
2023/05/16 00:47:17;;;;;;;10.10;6.63;;;10.30;99.90;;;;;;2610646;54;20470;-73
2023/05/16 00:53:05;;;;;;;7.27;6.23;;;10.30;99.90;;;;;;2613764;54;20123;-75
2023/05/16 00:58:52;;;;;;;11.93;6.23;;;10.20;99.90;;;;;;2613618;54;20122;-73
2023/05/16 01:04:41;;;;;;;6.90;6.20;;;10.10;99.90;;;;;;2613287;54;20166;-73
2023/05/16 01:10:39;;;;;;;7.63;5.90;;;10.10;99.90;;;;;;2613511;54;20399;-72
2023/05/16 01:22:46;;;;;;;7.77;6.97;;;9.90;99.90;;;;;;2613508;54;20363;-73
2023/05/16 01:28:35;;;;;;;9.80;8.00;;;9.80;99.90;;;;;;2610076;54;20374;-73
2023/05/16 01:34:22;;;;;;;8.37;6.67;;;9.70;99.90;;;;;;2609626;54;20371;-73
2023/05/16 01:50:14;;;;;;;8.67;5.40;;;9.30;99.90;;;;;;2609892;54;20918;-73
2023/05/16 01:56:02;;;;;;;10.13;4.60;;;9.20;99.90;;;;;;2610086;54;20371;-73
2023/05/16 02:01:53;;;;;;;7.63;5.20;;;9.10;99.90;;;;;;2610412;54;20766;-73
2023/05/16 02:07:40;;;;;;;8.87;4.73;;;9.00;99.90;;;;;;2610577;39;20737;-73
2023/05/16 02:13:28;;;;;;;16.17;6.40;;;8.90;99.90;;;;;;2610566;54;20153;-72
2023/05/16 02:19:16;;;;;;;13.43;5.67;;;8.90;99.90;;;;;;2610259;54;20286;-73
2023/05/16 02:25:04;;;;;;;14.30;5.60;;;8.90;99.90;;;;;;2610667;54;20640;-72
2023/05/16 02:31:00;;;;;;;10.20;5.30;;;8.90;99.90;;;;;;2610093;54;20454;-73
2023/05/16 02:36:47;;;;;;;15.70;6.50;;;9.00;99.90;;;;;;2610274;54;20956;-73
2023/05/16 02:42:35;;;;;;;17.30;8.60;;;9.00;99.90;;;;;;2611353;46;20258;-73
2023/05/16 02:51:45;;;;;;;10.87;6.87;;;9.00;99.90;;;;;;2610374;54;20458;-69
2023/05/16 02:57:33;;;;;;;15.40;6.90;;;9.00;99.90;;;;;;2610914;54;20339;-73
2023/05/16 03:03:21;;;;;;;10.40;6.53;;;9.10;99.90;;;;;;2614569;54;20151;-74
2023/05/16 03:09:09;;;;;;;13.10;7.53;;;9.10;99.90;;;;;;2614233;54;20127;-73
2023/05/16 03:14:57;;;;;;;20.80;7.73;;;9.00;99.90;;;;;;2614369;54;20126;-72
2023/05/16 03:20:44;;;;;;;19.23;7.00;;;8.90;99.90;;;;;;2610978;54;20871;-73
2023/05/16 03:26:32;;;;;;;17.80;6.90;;;8.90;99.90;;;;;;2612271;54;20170;-72
2023/05/16 03:32:20;;;;;;;17.10;7.87;;;8.80;99.90;;;;;;2610760;54;20177;-73
2023/05/16 03:38:08;;;;;;;16.90;8.07;;;8.70;99.90;;;;;;2610655;54;20122;-72
2023/05/16 03:43:56;;;;;;;18.87;8.17;;;8.60;99.90;;;;;;2610852;39;20622;-73
2023/05/16 03:47:08;;;;;;;19.30;6.90;;;8.60;99.90;;;;;;2609722;46;20415;-73
2023/05/16 03:49:35;;;;;;;13.63;6.50;;;8.60;99.90;;;;;;2610173;54;20142;-73
2023/05/16 03:55:23;;;;;;;11.50;6.60;;;8.40;99.90;;;;;;2613356;54;20390;-73
2023/05/16 03:58:27;;;;;;;13.93;6.63;;;8.40;99.90;;;;;;2613372;54;20380;-73
2023/05/16 04:00:52;;;;;;;16.60;6.30;;;8.40;99.90;;;;;;2613957;54;20486;-74
2023/05/16 04:06:40;;;;;;;14.93;7.00;;;8.40;99.90;;;;;;2614128;54;20122;-75
2023/05/16 04:12:28;;;;;;;15.33;7.70;;;8.20;99.90;;;;;;2614818;54;20142;-73
2023/05/16 04:18:16;;;;;;;16.97;6.63;;;8.10;99.90;;;;;;2610485;54;20134;-74
2023/05/16 04:24:04;;;;;;;16.07;7.00;;;8.00;99.90;;;;;;2611243;39;20519;-74
2023/05/16 04:29:51;;;;;;;18.70;6.70;;;8.00;99.90;;;;;;2610732;54;20382;-75
2023/05/16 04:35:39;;;;;;;12.40;7.47;;;8.00;99.90;;;;;;2610884;54;20142;-74
2023/05/16 04:41:27;;;;;;;16.30;6.83;;;8.10;99.90;;;;;;2611217;54;20203;-74
2023/05/16 04:53:59;;;;;;;14.87;7.27;;;8.40;99.90;;;;;;2611269;54;20366;-73
2023/05/16 04:59:47;;;;;;;11.63;7.57;;;8.80;99.90;;;;;;2611592;54;20543;-75
2023/05/16 05:05:35;;;;;;;17.67;8.00;;;8.90;99.90;;;;;;2610587;54;20114;-74
2023/05/16 05:11:22;;;;;;;12.00;7.40;;;9.00;99.90;;;;;;2611181;54;20161;-74
2023/05/16 05:17:10;;;;;;;16.53;8.10;;;9.50;99.90;;;;;;2609910;54;20573;-73
2023/05/16 05:22:58;;;;;;;15.60;7.77;;;9.60;99.90;;;;;;2608062;54;20133;-73
2023/05/16 05:28:47;;;;;;;18.13;8.10;;;9.60;99.90;;;;;;2611780;54;20563;-74
2023/05/16 05:34:35;;;;;;;15.07;7.20;;;10.00;99.90;;;;;;2613616;54;20924;-76
2023/05/16 05:40:22;;;;;;;11.77;6.90;;;10.80;99.90;;;;;;2612600;54;20186;-74
2023/05/16 05:46:10;;;;;;;20.60;8.80;;;10.70;99.90;;;;;;2612392;54;20158;-73
2023/05/16 05:51:58;;;;;;;6.80;6.03;;;10.70;99.90;;;;;;2610940;39;20825;-73
2023/05/16 05:57:45;;;;;;;11.87;6.13;;;11.00;99.90;;;;;;2612001;54;20182;-73
2023/05/16 06:03:33;;;;;;;12.83;6.60;;;10.70;99.90;;;;;;2608865;31;20585;-74
2023/05/16 06:09:21;;;;;;;14.27;6.77;;;11.30;99.90;;;;;;2609363;54;20138;-73
2023/05/16 06:15:09;;;;;;;8.53;5.90;;;11.40;99.90;;;;;;2611335;39;20643;-74
2023/05/16 06:20:56;;;;;;;17.27;6.87;;;11.70;99.90;;;;;;2612454;31;20805;-73
2023/05/16 06:26:48;;;;;;;7.73;6.90;;;12.00;99.90;;;;;;2613111;54;20162;-73
2023/05/16 06:32:36;;;;;;;10.17;6.60;;;11.70;99.90;;;;;;2613963;39;20809;-74
2023/05/16 06:35:19;;;;;;;15.70;8.23;;;11.80;99.90;;;;;;2611632;54;20411;-74
2023/05/16 06:37:45;;;;;;;13.83;7.40;;;11.90;99.90;;;;;;2611235;54;20141;-74
2023/05/16 06:43:32;;;;;;;15.97;7.83;;;12.50;99.90;;;;;;2612728;54;20234;-74
2023/05/16 06:49:20;;;;;;;9.13;7.17;;;11.80;99.90;;;;;;2610971;54;20166;-74
2023/05/16 06:55:08;;;;;;;12.23;7.60;;;12.60;99.90;;;;;;2612635;54;20154;-73
2023/05/16 07:00:56;;;;;;;11.40;7.13;;;12.50;99.90;;;;;;2610860;54;20379;-74
2023/05/16 07:06:44;;;;;;;10.40;8.30;;;12.60;99.90;;;;;;2609116;46;20154;-73
2023/05/16 07:12:31;;;;;;;9.93;8.23;;;12.90;99.90;;;;;;2612740;54;20161;-73
2023/05/16 07:18:19;;;;;;;13.43;7.47;;;11.80;99.90;;;;;;2612676;54;20199;-73
2023/05/16 07:24:07;;;;;;;8.20;7.40;;;10.90;99.90;;;;;;2613621;54;20146;-73
2023/05/16 07:29:54;;;;;;;8.97;7.40;;;11.40;99.90;;;;;;2612082;39;20831;-74
2023/05/16 07:35:42;;;;;;;9.57;8.20;;;12.50;99.90;;;;;;2611067;54;20686;-74
2023/05/16 07:41:30;;;;;;;10.53;8.80;;;13.60;99.90;;;;;;2613490;54;20131;-73
2023/05/16 07:47:18;;;;;;;11.30;10.37;;;14.20;99.90;;;;;;2611235;54;20395;-73
2023/05/16 07:56:28;;;;;;;10.40;9.40;;;14.60;84.70;;;;;;2613371;54;20410;-72
2023/05/16 08:02:15;;;;;;;10.30;9.70;;;13.70;61.80;;;;;;2613841;54;20150;-73
2023/05/16 08:14:47;;;;;;;11.60;10.67;;;13.30;53.50;;;;;;2613917;54;20399;-72
2023/05/16 08:20:35;;;;;;;11.27;10.30;;;14.40;43.70;;;;;;2613702;54;20247;-73
2023/05/16 08:26:23;;;;;;;11.50;10.90;;;14.90;33.50;;;;;;2612759;54;20130;-73
2023/05/16 08:32:11;;;;;;;11.90;11.20;;;14.50;35.90;;;;;;2614010;54;20495;-73
2023/05/16 08:37:59;;;;;;;11.33;10.73;;;15.20;29.60;;;;;;2613308;54;20165;-72
2023/05/16 08:43:47;;;;;;;12.40;11.57;;;15.10;28.70;;;;;;2613326;39;20800;-74
2023/05/16 08:49:35;;;;;;;13.00;12.20;;;16.10;24.50;;;;;;2613860;39;20669;-73
2023/05/16 08:58:45;;;;;;;13.13;12.33;;;15.90;21.50;;;;;;2613549;54;20426;-73
2023/05/16 09:04:34;;;;;;;13.37;12.33;;;16.20;20.50;;;;;;2613499;54;20134;-73
2023/05/16 09:10:22;;;;;;;13.20;12.60;;;15.90;19.10;;;;;;2612682;54;20410;-74
2023/05/16 09:16:11;;;;;;;12.20;11.30;;;17.00;17.60;;;;;;2613606;54;20614;-74
2023/05/16 09:22:02;;;;;;;13.47;12.77;;;16.50;18.50;;;;;;2614319;54;20438;-75
2023/05/16 09:27:54;;;;;;;14.03;13.23;;;15.20;21.70;;;;;;2613705;54;20375;-74
2023/05/16 09:33:42;;;;;;;12.53;11.73;;;16.80;19.90;;;;;;2613982;54;20592;-73
2023/05/16 09:39:30;;;;;;;12.53;11.50;;;16.00;18.30;;;;;;2613082;54;20438;-74
2023/05/16 09:45:19;;;;;;;12.93;12.23;;;14.80;22.50;;;;;;2613055;54;20154;-74
2023/05/16 09:51:07;;;;;;;14.10;13.20;;;14.00;22.90;;;;;;2613892;54;20395;-73
2023/05/16 09:54:10;;;;;;;13.27;12.50;;;14.00;25.10;;;;;;2612499;54;20400;-73
2023/05/16 10:00:08;;;;;;;13.10;12.23;;;16.50;22.50;;;;;;2611103;54;20406;-74
2023/05/16 10:02:36;;;;;;;13.33;12.80;;;16.00;18.80;;;;;;2610784;54;20400;-74
2023/05/16 10:08:25;;;;;;;13.17;12.43;;;15.80;19.20;;;;;;2614383;54;20395;-73
2023/05/16 10:14:16;;;;;;;14.23;13.40;;;15.20;18.90;;;;;;2612839;54;20479;-73
2023/05/16 10:20:06;;;;;;;13.47;12.60;;;14.70;19.80;;;;;;2613027;39;20735;-73
2023/05/16 10:25:56;;;;;;;14.70;13.67;;;14.10;20.00;;;;;;2613682;54;20426;-73
2023/05/16 10:31:45;;;;;;;13.87;13.07;;;16.60;21.40;;;;;;2612958;39;20948;-74
2023/05/16 10:37:33;;;;;;;13.00;12.20;;;16.40;17.00;;;;;;2612977;39;20793;-73
2023/05/16 10:43:26;;;;;;;14.13;13.43;;;15.20;21.20;;;;;;2613455;54;20402;-74
2023/05/16 10:49:20;;;;;;;14.47;13.67;;;14.40;25.90;;;;;;2612344;54;20395;-73
2023/05/16 10:58:39;;;;;;;14.40;13.33;;;15.40;27.40;;;;;;2612392;54;20390;-73
2023/05/16 11:11:42;;;;;;;13.33;12.67;;;16.90;20.00;;;;;;2614272;54;20398;-73
2023/05/16 11:34:47;;;;;;;13.83;12.83;;;16.30;14.10;;;;;;2610058;54;20534;-74
2023/05/16 11:40:35;;;;;;;14.37;13.23;;;15.70;18.20;;;;;;2610235;39;20785;-74
2023/05/16 11:46:22;;;;;;;14.37;13.47;;;15.10;22.40;;;;;;2611037;54;20274;-73
2023/05/16 11:52:10;;;;;;;13.00;12.30;;;15.10;24.90;;;;;;2612240;54;20135;-73
2023/05/16 11:57:58;;;;;;;13.40;12.50;;;14.20;28.90;;;;;;2610664;54;20169;-73
2023/05/16 12:10:08;;;;;;;13.90;13.10;;;17.10;23.60;;;;;;2613360;54;20395;-74
2023/05/16 12:15:56;;;;;;;13.20;12.23;;;16.90;18.30;;;;;;2611742;39;20766;-73
2023/05/16 12:21:43;;;;;;;15.47;14.20;;;17.30;19.70;;;;;;2611859;54;20656;-73
2023/05/16 12:27:31;;;;;;;13.70;13.10;;;17.10;16.30;;;;;;2610332;46;20149;-73
2023/05/16 12:33:20;;;;;;;14.53;13.63;;;15.30;18.30;;;;;;2612506;54;20395;-73
2023/05/16 12:39:12;;;;;;;13.43;12.73;;;15.20;25.30;;;;;;2613483;54;20412;-73
2023/05/16 12:42:24;;;;;;;13.40;12.60;;;16.60;25.20;;;;;;2612678;54;20387;-73
2023/05/16 12:44:55;;;;;;;14.87;14.17;;;17.60;21.90;;;;;;2611375;54;20407;-73
2023/05/16 12:50:45;;;;;;;14.27;13.57;;;17.00;15.70;;;;;;2611980;39;20495;-73
2023/05/16 12:54:10;;;;;;;14.13;13.40;;;17.00;16.10;;;;;;2611572;47;20414;-73
2023/05/16 12:56:37;;;;;;;14.33;13.53;;;16.40;15.70;;;;;;2611402;54;20980;-73
2023/05/16 13:02:24;;;;;;;13.30;12.70;;;15.50;18.00;;;;;;2612793;39;20704;-73
2023/05/16 13:08:12;;;;;;;14.10;13.40;;;15.60;20.30;;;;;;2611617;54;20273;-73
2023/05/16 13:14:00;;;;;;;15.97;15.23;;;17.30;13.50;;;;;;2612708;54;20170;-73
2023/05/16 13:19:47;;;;;;;13.77;13.07;;;17.80;10.10;;;;;;2612922;54;20158;-73
2023/05/16 13:25:35;;;;;;;14.90;14.20;;;17.70;5.80;;;;;;2611187;54;20238;-72
2023/05/16 13:31:23;;;;;;;15.30;14.30;;;16.60;6.90;;;;;;2612215;54;20150;-72
2023/05/16 13:37:11;;;;;;;14.00;13.50;;;15.70;7.30;;;;;;2613296;54;20174;-73
2023/05/16 13:43:00;;;;;;;15.13;14.43;;;15.60;9.70;;;;;;2611594;54;20173;-73
2023/05/16 13:48:48;;;;;;;14.10;13.50;;;15.50;11.20;;;;;;2612057;54;20363;-73
2023/05/16 13:58:39;;;;;;;14.53;13.40;;;18.00;6.60;;;;;;2612123;54;20387;-73
2023/05/16 14:04:27;;;;;;;15.47;14.67;;;17.60;4.50;;;;;;2612155;54;20364;-73
2023/05/16 14:10:14;;;;;;;14.27;13.67;;;16.30;4.70;;;;;;2612960;54;20126;-73
2023/05/16 14:13:18;;;;;;;14.97;14.27;;;16.10;6.20;;;;;;2612229;54;20400;-73
2023/05/16 14:15:44;;;;;;;15.17;14.47;;;15.80;5.10;;;;;;2609603;39;20515;-74
2023/05/16 14:21:33;;;;;;;15.10;14.40;;;15.40;8.10;;;;;;2611913;54;20466;-73
2023/05/16 14:27:20;;;;;;;15.33;14.43;;;14.90;9.10;;;;;;2611521;54;20427;-73
2023/05/16 14:33:09;;;;;;;14.00;13.30;;;15.20;8.70;;;;;;2611851;54;20143;-73
2023/05/16 14:38:57;;;;;;;13.53;12.93;;;15.20;10.20;;;;;;2611422;54;20415;-73
2023/05/16 14:44:45;;;;;;;15.50;14.33;;;15.50;13.00;;;;;;2610419;54;20114;-73
2023/05/16 14:50:33;;;;;;;15.37;14.37;;;15.00;13.60;;;;;;2613083;54;20650;-73
2023/05/16 14:56:20;;;;;;;14.57;13.67;;;14.80;14.60;;;;;;2613366;54;20202;-73
2023/05/16 15:02:08;;;;;;;15.00;14.20;;;14.70;17.20;;;;;;2610151;54;20385;-73
2023/05/16 15:07:56;;;;;;;15.87;14.87;;;14.40;18.50;;;;;;2614026;54;20138;-73
2023/05/16 15:13:44;;;;;;;15.03;14.33;;;14.30;18.40;;;;;;2613405;54;20395;-72
2023/05/16 15:19:32;;;;;;;15.40;14.60;;;14.70;22.70;;;;;;2612730;54;20366;-73
2023/05/16 15:25:19;;;;;;;17.63;16.60;;;14.80;23.40;;;;;;2613677;54;20653;-73
2023/05/16 15:31:07;;;;;;;16.07;14.97;;;14.50;23.20;;;;;;2613966;54;20126;-73
2023/05/16 15:36:55;;;;;;;16.80;15.40;;;13.90;24.80;;;;;;2613702;54;20161;-73
2023/05/16 15:42:43;;;;;;;15.73;14.83;;;14.00;28.50;;;;;;2614321;39;20539;-73
2023/05/16 15:48:31;;;;;;;15.47;14.43;;;14.30;27.40;;;;;;2611921;54;20590;-74
2023/05/16 15:58:40;;;;;;;14.90;13.83;;;14.80;24.90;;;;;;2612497;54;20371;-73
2023/05/16 16:04:28;;;;;;;15.00;14.17;;;15.20;21.60;;;;;;2610660;54;20370;-73
2023/05/16 16:10:15;;;;;;;12.97;12.20;;;14.80;21.20;;;;;;2613100;54;20126;-74
2023/05/16 16:16:03;;;;;;;14.70;13.60;;;14.10;22.60;;;;;;2613945;54;20644;-73
2023/05/16 16:21:51;;;;;;;13.83;12.80;;;14.20;27.80;;;;;;2611545;54;20131;-73
2023/05/16 16:27:39;;;;;;;16.70;15.63;;;14.70;28.30;;;;;;2610942;46;20186;-73
2023/05/16 16:33:27;;;;;;;15.40;14.60;;;14.20;30.20;;;;;;2611538;54;20371;-73
2023/05/16 16:39:15;;;;;;;16.43;15.47;;;14.10;33.70;;;;;;2611267;54;20134;-73
2023/05/16 16:45:04;;;;;;;17.10;16.10;;;13.90;37.70;;;;;;2611009;54;20569;-73
2023/05/16 16:50:52;;;;;;;15.40;14.53;;;13.50;41.20;;;;;;2612188;54;20403;-73
2023/05/16 16:56:53;;;;;;;16.80;15.70;;;13.60;42.60;;;;;;2611820;54;20139;-73
2023/05/16 17:02:40;;;;;;;17.70;16.17;;;13.60;40.60;;;;;;2611364;39;20701;-73
2023/05/16 17:08:27;;;;;;;16.90;15.40;;;13.70;46.30;;;;;;2611818;54;20281;-73
2023/05/16 17:14:15;;;;;;;17.40;14.83;;;13.40;50.90;;;;;;2610007;54;20130;-73
2023/05/16 17:20:05;;;;;;;15.20;13.77;;;13.40;49.20;;;;;;2611997;54;21001;-74
2023/05/16 17:25:53;;;;;;;18.07;16.50;;;13.20;42.30;;;;;;2612504;54;20367;-73
2023/05/16 17:31:40;;;;;;;15.83;14.93;;;13.00;40.90;;;;;;2610219;54;20180;-72
2023/05/16 17:37:27;;;;;;;16.13;14.90;;;13.00;44.70;;;;;;2613344;54;20668;-73
2023/05/16 17:43:15;;;;;;;16.40;15.30;;;12.90;47.20;;;;;;2612002;54;20238;-72
2023/05/16 17:49:06;;;;;;;15.97;14.63;;;12.90;50.20;;;;;;2612099;54;20195;-73
2023/05/16 17:58:37;;;;;;;16.73;15.60;;;12.80;59.10;;;;;;2612042;54;20383;-73
2023/05/16 18:01:05;;;;;;;23.80;21.77;;;12.80;59.90;;;;;;2610396;54;20385;-73
2023/05/16 18:06:54;;;;;;;19.63;18.00;;;12.80;65.50;;;;;;2613599;39;20818;-73
2023/05/16 18:12:41;;;;;;;15.90;15.00;;;12.70;69.10;;;;;;2610893;54;20403;-73
2023/05/16 18:18:30;;;;;;;16.70;15.43;;;12.60;69.20;;;;;;2612028;54;20676;-73
2023/05/16 18:24:18;;;;;;;14.90;13.80;;;12.60;65.20;;;;;;2612376;39;20740;-74
2023/05/16 18:30:06;;;;;;;14.93;14.10;;;12.60;59.90;;;;;;2607925;46;20170;-74
2023/05/16 18:35:53;;;;;;;13.77;12.87;;;12.50;64.00;;;;;;2610756;54;20394;-73
2023/05/16 18:41:45;;;;;;;16.43;15.27;;;12.50;64.60;;;;;;2612190;54;20130;-73
2023/05/16 18:47:32;;;;;;;14.70;13.70;;;12.30;70.10;;;;;;2609702;54;20604;-74
2023/05/16 18:53:20;;;;;;;14.03;13.13;;;12.30;75.60;;;;;;2613397;54;20142;-73
2023/05/16 18:59:08;;;;;;;14.47;13.63;;;12.20;70.40;;;;;;2613718;54;20121;-73
2023/05/16 19:04:56;;;;;;;14.17;13.03;;;12.10;69.80;;;;;;2611763;54;20823;-73
2023/05/16 19:10:43;;;;;;;12.70;11.90;;;12.10;65.70;;;;;;2614447;54;20154;-73
2023/05/16 19:16:32;;;;;;;13.43;12.73;;;12.00;70.70;;;;;;2614058;54;20138;-73
2023/05/16 19:22:20;;;;;;;12.93;12.17;;;12.00;77.60;;;;;;2609984;39;20786;-72
2023/05/16 19:28:07;;;;;;;13.37;12.50;;;11.90;86.40;;;;;;2609243;54;20126;-74
2023/05/16 19:33:57;;;;;;;14.30;13.60;;;11.90;91.60;;;;;;2609246;46;20786;-73
2023/05/16 19:39:45;;;;;;;14.70;14.00;;;11.80;97.10;;;;;;2606797;54;20399;-74
2023/05/16 19:45:33;;;;;;;13.57;12.87;;;11.80;99.90;;;;;;2611128;54;20122;-74
2023/05/16 19:51:21;;;;;;;14.37;13.33;;;11.70;99.90;;;;;;2613971;54;20170;-73
2023/05/16 19:54:07;;;;;;;13.43;12.53;;;11.70;99.90;;;;;;2612746;54;20450;-73
2023/05/16 19:56:33;;;;;;;12.57;11.97;;;11.60;99.90;;;;;;2613804;54;20151;-72
2023/05/16 20:02:20;;;;;;;13.43;12.73;;;11.50;99.90;;;;;;2612297;54;20162;-72
2023/05/16 20:08:08;;;;;;;13.23;12.23;;;11.40;99.90;;;;;;2613393;54;20142;-73
2023/05/16 20:13:58;;;;;;;13.40;12.50;;;11.30;99.90;;;;;;2613827;54;20162;-73
2023/05/16 20:19:45;;;;;;;13.00;12.07;;;11.30;99.90;;;;;;2612425;54;20486;-73
2023/05/16 20:25:34;;;;;;;12.37;11.67;;;11.30;99.90;;;;;;2613879;54;20123;-73
2023/05/16 20:31:22;;;;;;;13.07;12.33;;;11.40;99.90;;;;;;2612895;54;20419;-74
2023/05/16 20:37:09;;;;;;;12.77;11.87;;;11.40;99.90;;;;;;2613023;54;20653;-72
2023/05/16 20:42:56;;;;;;;12.80;12.10;;;11.50;99.90;;;;;;2612218;39;20640;-73
2023/05/16 20:48:44;;;;;;;10.17;9.57;;;11.50;99.90;;;;;;2612272;54;20142;-73
2023/05/16 20:58:42;;;;;;;4.80;3.73;;;10.40;99.90;;;;;;2613213;54;21256;-73
2023/05/16 21:04:30;;;;;;;8.63;5.33;;;10.00;99.90;;;;;;2613856;39;20868;-74
2023/05/16 21:10:17;;;;;;;4.40;4.00;;;9.90;99.90;;;;;;2613396;54;20134;-74
2023/05/16 21:16:05;;;;;;;6.07;4.37;;;9.90;99.90;;;;;;2614111;54;20247;-74
2023/05/16 21:21:53;;;;;;;7.53;4.30;;;9.90;99.90;;;;;;2613144;54;20166;-73
2023/05/16 21:27:40;;;;;;;6.70;5.33;;;9.80;99.90;;;;;;2612969;54;20153;-73
2023/05/16 21:33:28;;;;;;;7.57;4.97;;;9.80;99.90;;;;;;2612501;54;20633;-73
2023/05/16 21:39:16;;;;;;;5.20;4.47;;;9.70;99.90;;;;;;2613562;54;20158;-73
2023/05/16 21:45:04;;;;;;;5.90;5.40;;;9.70;99.90;;;;;;2613850;54;20146;-74
2023/05/16 21:50:51;;;;;;;6.40;4.43;;;9.40;99.90;;;;;;2613275;54;20371;-74
2023/05/16 21:56:52;;;;;;;5.00;4.60;;;9.20;99.90;;;;;;2613196;39;20528;-74
2023/05/16 22:02:40;;;;;;;7.43;4.70;;;9.00;99.90;;;;;;2612783;54;20133;-73
2023/05/16 22:08:27;;;;;;;7.43;4.90;;;8.90;99.90;;;;;;2613159;54;20142;-73
2023/05/16 22:14:15;;;;;;;6.70;5.27;;;8.80;99.90;;;;;;2612903;54;20171;-73
2023/05/16 22:20:02;;;;;;;7.30;5.00;;;8.70;99.90;;;;;;2613067;54;20188;-73
2023/05/16 22:25:49;;;;;;;10.17;5.03;;;8.50;99.90;;;;;;2613413;39;20555;-73
2023/05/16 22:31:36;;;;;;;6.57;4.80;;;8.50;99.90;;;;;;2611930;54;20122;-74
2023/05/16 22:37:23;;;;;;;6.90;5.13;;;8.30;99.90;;;;;;2613025;54;20154;-73
2023/05/16 22:43:11;;;;;;;13.17;6.13;;;8.10;99.90;;;;;;2613557;54;20158;-74
2023/05/16 22:48:58;;;;;;;7.97;5.93;;;8.00;99.90;;;;;;2614729;54;20173;-74
2023/05/16 22:58:37;;;;;;;17.60;7.27;;;7.60;99.90;;;;;;2614905;54;20399;-74
2023/05/16 23:04:24;;;;;;;8.47;6.17;;;7.70;99.90;;;;;;2614269;54;20442;-74
2023/05/16 23:10:12;;;;;;;6.03;5.47;;;7.70;99.90;;;;;;2613490;54;20158;-74
2023/05/16 23:16:00;;;;;;;7.70;6.30;;;7.60;99.90;;;;;;2613108;54;20166;-74
2023/05/16 23:21:48;;;;;;;6.97;6.27;;;7.50;99.90;;;;;;2614858;54;20212;-73
2023/05/16 23:27:36;;;;;;;9.93;5.77;;;7.50;99.90;;;;;;2613444;46;20591;-74
2023/05/16 23:33:23;;;;;;;7.20;6.00;;;7.50;99.90;;;;;;2614546;54;20122;-74
2023/05/16 23:39:11;;;;;;;7.83;6.03;;;7.40;99.90;;;;;;2613937;54;20138;-73
2023/05/16 23:44:59;;;;;;;5.97;5.40;;;7.40;99.90;;;;;;2612898;54;20219;-74
2023/05/16 23:50:47;;;;;;;8.40;6.93;;;7.20;99.90;;;;;;2614222;54;20146;-74
2023/05/16 23:56:52;;;;;;;7.33;6.47;;;7.10;99.90;;;;;;2612393;54;20135;-74
